createdAt,value
2018-07-16T00:00:23.493Z,20.70
2018-07-16T00:02:52.101Z,20.70
2018-07-16T00:05:20.549Z,20.60
2018-07-16T00:07:49.007Z,20.60
2018-07-16T00:10:18.047Z,20.60
2018-07-16T00:12:46.549Z,20.60
2018-07-16T00:15:14.963Z,20.50
2018-07-16T00:17:43.394Z,20.50
2018-07-16T00:20:12.479Z,20.30
2018-07-16T00:22:40.925Z,20.20
2018-07-16T00:25:09.356Z,20.10
2018-07-16T00:27:38.339Z,19.90
2018-07-16T00:30:07.017Z,19.90
2018-07-16T00:32:35.474Z,19.80
2018-07-16T00:35:04.517Z,19.90
2018-07-16T00:37:33.128Z,19.80
2018-07-16T00:40:01.634Z,19.80
2018-07-16T00:42:30.034Z,19.80
2018-07-16T00:44:58.493Z,19.70
2018-07-16T00:47:26.952Z,19.60
2018-07-16T00:49:55.437Z,19.40
2018-07-16T00:52:24.061Z,19.40
2018-07-16T00:54:52.489Z,19.30
2018-07-16T00:57:20.911Z,19.40
2018-07-16T00:59:49.349Z,19.30
2018-07-16T01:04:45.968Z,19.30
2018-07-16T01:07:14.494Z,19.30
2018-07-16T01:09:42.883Z,19.20
2018-07-16T01:12:11.301Z,19.20
2018-07-16T01:14:39.813Z,19.20
2018-07-16T01:17:08.309Z,19.10
2018-07-16T01:19:36.753Z,19.00
2018-07-16T01:22:11.836Z,19.00
2018-07-16T01:24:40.281Z,19.00
2018-07-16T01:27:08.774Z,19.00
2018-07-16T01:29:37.173Z,19.00
2018-07-16T01:32:05.668Z,18.90
2018-07-16T01:34:34.150Z,18.90
2018-07-16T01:37:07.134Z,18.80
2018-07-16T01:39:35.577Z,18.80
2018-07-16T01:42:04.097Z,18.70
2018-07-16T01:44:32.521Z,18.80
2018-07-16T01:47:01.041Z,18.70
2018-07-16T01:49:29.447Z,18.70
2018-07-16T01:51:57.890Z,18.70
2018-07-16T01:54:26.381Z,18.60
2018-07-16T01:56:54.825Z,18.60
2018-07-16T01:59:23.309Z,18.50
2018-07-16T02:01:51.731Z,18.50
2018-07-16T02:04:20.224Z,18.40
2018-07-16T02:06:48.731Z,18.40
2018-07-16T02:09:17.212Z,18.50
2018-07-16T02:11:45.617Z,18.40
2018-07-16T02:14:14.084Z,18.40
2018-07-16T02:16:42.508Z,18.40
2018-07-16T02:19:10.908Z,18.40
2018-07-16T02:21:45.924Z,18.40
2018-07-16T02:24:14.418Z,18.30
2018-07-16T02:26:42.860Z,18.30
2018-07-16T02:29:11.878Z,18.30
2018-07-16T02:31:40.338Z,18.20
2018-07-16T02:34:08.761Z,18.20
2018-07-16T02:36:37.414Z,18.20
2018-07-16T02:39:06.119Z,18.10
2018-07-16T02:41:34.552Z,18.00
2018-07-16T02:44:02.979Z,17.80
2018-07-16T02:46:31.469Z,17.70
2018-07-16T02:48:59.865Z,17.70
2018-07-16T02:51:28.307Z,17.80
2018-07-16T02:53:56.728Z,17.70
2018-07-16T02:56:25.229Z,17.70
2018-07-16T02:58:53.648Z,17.70
2018-07-16T03:01:22.722Z,17.70
2018-07-16T03:03:51.185Z,17.60
2018-07-16T03:06:19.696Z,17.70
2018-07-16T03:08:48.172Z,17.70
2018-07-16T03:11:16.567Z,17.70
2018-07-16T03:13:45.338Z,17.70
2018-07-16T03:16:13.762Z,17.60
2018-07-16T03:18:42.197Z,17.60
2018-07-16T03:21:10.897Z,17.60
2018-07-16T03:23:39.302Z,17.60
2018-07-16T03:26:07.718Z,17.50
2018-07-16T03:28:36.252Z,17.60
2018-07-16T03:31:04.732Z,17.60
2018-07-16T03:33:33.873Z,17.60
2018-07-16T03:36:02.320Z,17.50
2018-07-16T03:38:30.725Z,17.60
2018-07-16T03:40:59.896Z,17.60
2018-07-16T03:43:28.380Z,17.60
2018-07-16T03:45:56.825Z,17.60
2018-07-16T03:48:25.253Z,17.60
2018-07-16T03:50:53.650Z,17.50
2018-07-16T03:53:22.088Z,17.60
2018-07-16T03:55:50.568Z,17.50
2018-07-16T03:58:18.980Z,17.50
2018-07-16T04:00:47.463Z,17.50
2018-07-16T04:03:15.866Z,17.50
2018-07-16T04:05:44.317Z,17.60
2018-07-16T04:08:12.804Z,17.50
2018-07-16T04:10:41.304Z,17.40
2018-07-16T04:13:09.737Z,17.40
2018-07-16T04:15:38.188Z,17.50
2018-07-16T04:18:10.979Z,17.60
2018-07-16T04:20:39.431Z,17.60
2018-07-16T04:23:07.988Z,17.70
2018-07-16T04:25:36.448Z,17.70
2018-07-16T04:28:05.317Z,17.80
2018-07-16T04:30:33.777Z,17.80
2018-07-16T04:33:02.601Z,17.80
2018-07-16T04:35:31.172Z,17.90
2018-07-16T04:37:59.624Z,17.90
2018-07-16T04:40:28.093Z,17.90
2018-07-16T04:42:56.716Z,18.00
2018-07-16T04:45:25.177Z,18.00
2018-07-16T04:47:53.599Z,18.00
2018-07-16T04:50:22.036Z,18.10
2018-07-16T04:52:51.162Z,18.10
2018-07-16T04:55:19.605Z,18.20
2018-07-16T04:57:48.240Z,18.00
2018-07-16T05:00:16.909Z,18.10
2018-07-16T05:02:45.328Z,18.20
2018-07-16T05:05:13.724Z,18.20
2018-07-16T05:07:42.154Z,18.30
2018-07-16T05:10:11.224Z,18.40
2018-07-16T05:12:39.630Z,18.50
2018-07-16T05:15:08.048Z,18.60
2018-07-16T05:17:36.513Z,18.70
2018-07-16T05:20:05.112Z,18.80
2018-07-16T05:22:34.151Z,18.80
2018-07-16T05:25:03.194Z,18.90
2018-07-16T05:27:31.646Z,19.10
2018-07-16T05:30:00.108Z,19.10
2018-07-16T05:32:28.721Z,19.10
2018-07-16T05:34:57.043Z,19.30
2018-07-16T05:37:25.602Z,19.30
2018-07-16T05:39:54.101Z,19.30
2018-07-16T05:42:22.556Z,19.30
2018-07-16T05:44:50.968Z,19.40
2018-07-16T05:47:19.436Z,19.40
2018-07-16T05:49:47.880Z,19.50
2018-07-16T05:52:16.325Z,19.70
2018-07-16T05:54:44.784Z,19.70
2018-07-16T05:57:13.230Z,19.80
2018-07-16T05:59:41.729Z,20.00
2018-07-16T06:02:10.188Z,20.10
2018-07-16T06:04:38.650Z,20.10
2018-07-16T06:07:07.197Z,20.10
2018-07-16T06:09:36.474Z,20.20
2018-07-16T06:14:33.240Z,20.40
2018-07-16T06:17:02.301Z,20.40
2018-07-16T06:19:31.320Z,20.40
2018-07-16T06:21:59.791Z,20.50
2018-07-16T06:24:28.261Z,20.60
2018-07-16T06:26:56.686Z,20.90
2018-07-16T06:29:25.127Z,21.20
2018-07-16T06:31:53.669Z,21.40
2018-07-16T06:34:22.316Z,21.50
2018-07-16T06:36:50.794Z,21.60
2018-07-16T06:39:19.353Z,21.80
2018-07-16T06:41:47.786Z,21.90
2018-07-16T06:44:16.363Z,22.00
2018-07-16T06:46:44.757Z,21.90
2018-07-16T06:49:13.162Z,21.70
2018-07-16T06:51:41.610Z,21.90
2018-07-16T06:54:10.041Z,22.20
2018-07-16T06:56:38.490Z,22.30
2018-07-16T06:59:06.955Z,22.50
2018-07-16T07:01:35.496Z,22.60
2018-07-16T07:04:04.775Z,22.60
2018-07-16T07:06:33.197Z,22.70
2018-07-16T07:09:01.771Z,22.80
2018-07-16T07:11:30.222Z,22.80
2018-07-16T07:13:58.657Z,23.00
2018-07-16T07:16:27.198Z,23.10
2018-07-16T07:18:56.080Z,23.20
2018-07-16T07:21:24.575Z,23.30
2018-07-16T07:23:53.002Z,23.50
2018-07-16T07:26:21.717Z,23.60
2018-07-16T07:28:50.222Z,23.60
2018-07-16T07:31:18.662Z,23.80
2018-07-16T07:33:47.118Z,24.00
2018-07-16T07:36:15.587Z,24.10
2018-07-16T07:38:44.036Z,24.20
2018-07-16T07:41:12.508Z,24.30
2018-07-16T07:43:41.007Z,24.60
2018-07-16T07:46:09.921Z,24.70
2018-07-16T07:48:38.372Z,24.70
2018-07-16T07:51:07.526Z,24.90
2018-07-16T07:53:35.937Z,25.00
2018-07-16T07:56:05.188Z,25.00
2018-07-16T07:58:33.609Z,25.10
2018-07-16T08:01:02.059Z,25.20
2018-07-16T08:03:30.527Z,25.30
2018-07-16T08:06:04.240Z,25.40
2018-07-16T08:08:32.808Z,25.50
2018-07-16T08:11:01.286Z,25.70
2018-07-16T08:13:30.074Z,25.80
2018-07-16T08:15:58.576Z,26.00
2018-07-16T08:18:27.160Z,25.90
2018-07-16T08:20:55.892Z,25.90
2018-07-16T08:23:24.487Z,26.10
2018-07-16T08:25:53.032Z,26.40
2018-07-16T08:28:22.181Z,26.60
2018-07-16T08:30:50.885Z,26.80
2018-07-16T08:33:19.380Z,26.90
2018-07-16T08:35:47.864Z,26.90
2018-07-16T08:38:16.390Z,27.00
2018-07-16T08:40:44.912Z,27.10
2018-07-16T08:43:13.373Z,27.30
2018-07-16T08:45:42.411Z,27.20
2018-07-16T08:48:10.925Z,27.10
2018-07-16T08:50:39.409Z,27.30
2018-07-16T08:53:07.869Z,27.40
2018-07-16T08:55:36.364Z,27.60
2018-07-16T08:58:04.928Z,27.50
2018-07-16T09:00:33.473Z,27.50
2018-07-16T09:03:01.993Z,27.60
2018-07-16T09:05:30.462Z,27.70
2018-07-16T09:07:59.433Z,27.80
2018-07-16T09:10:28.041Z,28.00
2018-07-16T09:12:56.551Z,28.10
2018-07-16T09:15:25.075Z,28.20
2018-07-16T09:17:53.519Z,28.40
2018-07-16T09:20:22.565Z,28.60
2018-07-16T09:22:51.093Z,28.70
2018-07-16T09:25:19.656Z,28.70
2018-07-16T09:27:48.130Z,28.80
2018-07-16T09:30:16.653Z,29.00
2018-07-16T09:32:45.206Z,28.80
2018-07-16T09:35:14.408Z,28.90
2018-07-16T09:37:42.880Z,28.90
2018-07-16T09:40:11.432Z,28.90
2018-07-16T09:42:39.843Z,28.70
2018-07-16T09:45:08.336Z,28.70
2018-07-16T09:47:36.808Z,28.80
2018-07-16T09:50:05.300Z,29.00
2018-07-16T09:52:33.773Z,29.20
2018-07-16T09:55:02.257Z,29.20
2018-07-16T09:57:30.676Z,29.30
2018-07-16T09:59:59.132Z,29.50
2018-07-16T10:02:27.595Z,29.40
2018-07-16T10:04:56.054Z,29.40
2018-07-16T10:07:25.304Z,29.50
2018-07-16T10:09:53.768Z,29.70
2018-07-16T10:12:22.970Z,29.80
2018-07-16T10:14:51.385Z,29.90
2018-07-16T10:17:19.870Z,30.10
2018-07-16T10:19:48.493Z,30.20
2018-07-16T10:22:16.990Z,30.20
2018-07-16T10:24:45.502Z,30.30
2018-07-16T10:27:13.968Z,30.20
2018-07-16T10:29:42.448Z,29.80
2018-07-16T10:32:10.904Z,29.60
2018-07-16T10:34:39.409Z,29.70
2018-07-16T10:37:07.838Z,29.50
2018-07-16T10:39:36.325Z,29.20
2018-07-16T10:42:04.873Z,28.70
2018-07-16T10:44:33.401Z,28.50
2018-07-16T10:47:04.813Z,28.60
2018-07-16T10:49:33.262Z,28.80
2018-07-16T10:52:02.423Z,29.20
2018-07-16T10:54:30.953Z,29.50
2018-07-16T10:56:59.398Z,29.80
2018-07-16T10:59:27.835Z,29.90
2018-07-16T11:01:56.400Z,30.20
2018-07-16T11:04:24.876Z,30.20
2018-07-16T11:06:54.027Z,30.10
2018-07-16T11:09:22.605Z,29.70
2018-07-16T11:11:51.121Z,29.50
2018-07-16T11:14:19.623Z,29.50
2018-07-16T11:16:48.180Z,29.60
2018-07-16T11:19:16.662Z,29.90
2018-07-16T11:21:45.188Z,30.10
2018-07-16T11:24:13.651Z,30.10
2018-07-16T11:26:42.111Z,30.40
2018-07-16T11:29:10.569Z,30.50
2018-07-16T11:31:39.043Z,30.70
2018-07-16T11:34:08.282Z,30.70
2018-07-16T11:36:36.728Z,30.70
2018-07-16T11:39:07.297Z,30.70
2018-07-16T11:41:35.817Z,30.70
2018-07-16T11:44:04.328Z,30.60
2018-07-16T11:46:33.040Z,30.60
2018-07-16T11:49:02.333Z,30.70
2018-07-16T11:51:31.598Z,30.80
2018-07-16T11:54:00.029Z,30.70
2018-07-16T11:56:28.450Z,30.60
2018-07-16T11:58:56.970Z,30.60
2018-07-16T12:01:25.543Z,30.80
2018-07-16T12:03:53.964Z,30.90
2018-07-16T12:06:23.353Z,31.00
2018-07-16T12:08:53.847Z,31.00
2018-07-16T12:11:22.535Z,30.90
2018-07-16T12:13:51.047Z,30.90
2018-07-16T12:16:20.065Z,30.80
2018-07-16T12:18:48.534Z,30.70
2018-07-16T12:21:16.997Z,30.60
2018-07-16T12:23:45.468Z,30.40
2018-07-16T12:26:14.292Z,30.10
2018-07-16T12:28:43.084Z,30.10
2018-07-16T12:31:11.529Z,30.30
2018-07-16T12:33:40.021Z,30.60
2018-07-16T12:36:08.496Z,30.40
2018-07-16T12:38:37.114Z,30.30
2018-07-16T12:41:05.946Z,30.20
2018-07-16T12:43:34.548Z,30.30
2018-07-16T12:46:03.126Z,30.20
2018-07-16T12:48:31.597Z,30.20
2018-07-16T12:51:00.102Z,30.10
2018-07-16T12:53:28.690Z,30.10
2018-07-16T12:58:25.649Z,30.30
2018-07-16T13:00:54.149Z,30.40
2018-07-16T13:03:22.573Z,30.30
2018-07-16T13:05:51.193Z,30.30
2018-07-16T13:08:19.609Z,30.30
2018-07-16T13:10:48.542Z,30.30
2018-07-16T13:13:17.136Z,30.30
2018-07-16T13:15:45.593Z,30.30
2018-07-16T13:18:14.070Z,30.20
2018-07-16T13:20:42.647Z,30.40
2018-07-16T13:23:11.095Z,30.20
2018-07-16T13:25:39.597Z,30.20
2018-07-16T13:28:08.073Z,30.20
2018-07-16T13:30:36.541Z,30.30
2018-07-16T13:33:05.079Z,30.50
2018-07-16T13:35:33.557Z,30.60
2018-07-16T13:38:02.042Z,30.70
2018-07-16T13:40:30.581Z,30.70
2018-07-16T13:42:59.064Z,30.70
2018-07-16T13:45:28.211Z,30.70
2018-07-16T13:47:56.709Z,30.60
2018-07-16T13:50:25.538Z,30.30
2018-07-16T13:52:54.052Z,30.30
2018-07-16T13:55:22.513Z,30.30
2018-07-16T13:57:51.021Z,30.40
2018-07-16T14:00:19.491Z,30.50
2018-07-16T14:02:48.542Z,30.50
2018-07-16T14:05:17.117Z,30.60
2018-07-16T14:07:45.670Z,30.70
2018-07-16T14:10:14.110Z,30.90
2018-07-16T14:12:42.562Z,31.00
2018-07-16T14:15:11.180Z,31.10
2018-07-16T14:17:39.730Z,31.30
2018-07-16T14:20:08.245Z,31.20
2018-07-16T14:22:36.790Z,31.30
2018-07-16T14:25:05.270Z,31.30
2018-07-16T14:27:33.930Z,31.50
2018-07-16T14:30:02.471Z,31.70
2018-07-16T14:32:30.922Z,31.60
2018-07-16T14:34:59.488Z,31.30
2018-07-16T14:37:27.962Z,30.90
2018-07-16T14:39:56.619Z,30.70
2018-07-16T14:42:25.059Z,30.70
2018-07-16T14:44:53.612Z,30.60
2018-07-16T14:47:22.021Z,30.80
2018-07-16T14:49:50.658Z,31.00
2018-07-16T14:52:19.193Z,31.10
2018-07-16T14:54:47.656Z,31.10
2018-07-16T14:57:16.114Z,31.00
2018-07-16T14:59:44.610Z,31.00
2018-07-16T15:02:13.071Z,31.20
2018-07-16T15:04:41.608Z,31.30
2018-07-16T15:07:10.063Z,31.30
2018-07-16T15:12:06.968Z,31.00
2018-07-16T15:14:39.671Z,30.80
2018-07-16T15:17:08.155Z,30.60
2018-07-16T15:19:36.641Z,30.60
2018-07-16T15:22:05.153Z,30.50
2018-07-16T15:27:01.737Z,30.20
2018-07-16T15:29:30.278Z,30.10
2018-07-16T15:31:58.729Z,29.90
2018-07-16T15:34:27.198Z,29.90
2018-07-16T15:36:55.719Z,29.80
2018-07-16T15:39:24.151Z,29.80
2018-07-16T15:41:53.182Z,29.80
2018-07-16T15:44:21.700Z,29.80
2018-07-16T15:46:50.399Z,29.70
2018-07-16T15:49:18.882Z,29.50
2018-07-16T15:51:47.422Z,29.50
2018-07-16T15:54:15.845Z,29.50
2018-07-16T15:56:44.489Z,29.40
2018-07-16T15:59:13.013Z,29.40
2018-07-16T16:01:41.551Z,29.30
2018-07-16T16:04:10.040Z,29.30
2018-07-16T16:06:38.605Z,29.20
2018-07-16T16:09:09.506Z,29.20
2018-07-16T16:11:38.146Z,29.10
2018-07-16T16:14:07.239Z,29.20
2018-07-16T16:16:35.813Z,29.10
2018-07-16T16:19:04.493Z,29.00
2018-07-16T16:21:33.332Z,29.10
2018-07-16T16:24:01.809Z,29.10
2018-07-16T16:26:30.408Z,29.00
2018-07-16T16:49:09.794Z,28.60
2018-07-16T16:51:38.238Z,28.50
2018-07-16T16:54:06.724Z,28.40
2018-07-16T16:56:35.263Z,28.50
2018-07-16T16:59:03.713Z,28.50
2018-07-16T17:04:25.191Z,28.30
2018-07-16T17:06:54.569Z,28.40
2018-07-16T17:09:23.060Z,28.30
2018-07-16T17:11:51.581Z,28.20
2018-07-16T17:14:20.066Z,28.20
2018-07-16T17:16:48.919Z,28.20
2018-07-16T17:19:17.364Z,28.10
2018-07-16T17:21:45.819Z,28.00
2018-07-16T17:24:15.245Z,28.00
2018-07-16T17:26:44.622Z,28.00
2018-07-16T17:29:13.874Z,28.00
2018-07-16T17:31:42.592Z,28.00
2018-07-16T17:34:11.045Z,28.00
2018-07-16T17:36:39.508Z,28.00
2018-07-16T17:39:08.868Z,27.90
2018-07-16T17:41:37.350Z,28.00
2018-07-16T17:44:05.815Z,28.00
2018-07-16T17:46:34.271Z,28.00
2018-07-16T17:49:03.544Z,27.90
2018-07-16T17:51:32.068Z,28.00
2018-07-16T17:54:01.159Z,27.80
2018-07-16T17:56:29.648Z,27.80
2018-07-16T17:58:58.072Z,27.70
2018-07-16T18:01:26.659Z,27.70
2018-07-16T18:03:55.281Z,27.70
2018-07-16T18:06:23.788Z,27.70
2018-07-16T18:08:52.234Z,27.60
2018-07-16T18:11:20.693Z,27.60
2018-07-16T18:13:49.198Z,27.50
2018-07-16T18:16:18.193Z,27.50
2018-07-16T18:18:46.689Z,27.50
2018-07-16T18:21:15.136Z,27.40
2018-07-16T18:23:43.616Z,27.40
2018-07-16T18:26:12.242Z,27.30
2018-07-16T18:28:40.758Z,27.30
2018-07-16T18:31:09.185Z,27.30
2018-07-16T18:33:37.646Z,27.20
2018-07-16T18:38:35.070Z,27.20
2018-07-16T18:41:04.280Z,27.20
2018-07-16T18:43:32.711Z,27.10
2018-07-16T18:46:01.212Z,27.20
2018-07-16T18:48:29.671Z,27.20
2018-07-16T18:50:58.101Z,27.20
2018-07-16T18:53:26.894Z,27.10
2018-07-16T18:55:55.506Z,27.10
2018-07-16T18:58:24.006Z,27.10
2018-07-16T19:00:52.541Z,27.00
2018-07-16T19:03:21.168Z,27.00
2018-07-16T19:08:17.752Z,26.90
2018-07-16T19:10:46.281Z,26.80
2018-07-16T19:13:14.719Z,26.80
2018-07-16T19:15:43.213Z,26.70
2018-07-16T19:18:11.675Z,26.60
2018-07-16T19:20:40.183Z,26.60
2018-07-16T19:23:08.639Z,26.60
2018-07-16T19:25:37.097Z,26.50
2018-07-16T19:28:05.665Z,26.40
2018-07-16T19:30:34.254Z,26.30
2018-07-16T19:33:02.725Z,26.20
2018-07-16T19:35:31.326Z,26.10
2018-07-16T19:37:59.788Z,26.00
2018-07-16T19:40:28.302Z,26.00
2018-07-16T19:42:56.813Z,25.90
2018-07-16T19:45:25.297Z,25.80
2018-07-16T19:47:53.795Z,25.80
2018-07-16T19:50:22.277Z,25.70
2018-07-16T19:52:50.805Z,25.60
2018-07-16T19:55:19.381Z,25.40
2018-07-16T19:57:48.115Z,25.40
2018-07-16T20:00:16.588Z,25.40
2018-07-16T20:02:45.363Z,25.30
2018-07-16T20:12:44.986Z,25.00
2018-07-16T20:15:18.212Z,24.90
2018-07-16T20:17:46.734Z,24.90
2018-07-16T20:20:15.279Z,24.80
2018-07-16T20:22:43.729Z,24.80
2018-07-16T20:25:12.206Z,24.70
2018-07-16T20:27:40.999Z,24.60
2018-07-16T20:32:37.794Z,24.60
2018-07-16T20:35:07.367Z,24.50
2018-07-16T20:37:35.852Z,24.50
2018-07-16T20:40:04.605Z,24.50
2018-07-16T20:42:33.186Z,24.50
2018-07-16T20:45:01.650Z,24.50
2018-07-16T20:47:30.117Z,24.40
2018-07-16T20:49:58.551Z,24.30
2018-07-16T20:52:26.978Z,24.20
2018-07-16T20:54:55.441Z,24.20
2018-07-16T20:57:23.984Z,24.10
2018-07-16T20:59:52.444Z,24.00
2018-07-16T21:02:20.992Z,23.90
2018-07-16T21:04:49.426Z,23.80
2018-07-16T21:07:17.901Z,23.70
2018-07-16T21:09:47.237Z,23.60
2018-07-16T21:12:15.733Z,23.50
2018-07-16T21:14:44.201Z,23.40
2018-07-16T21:17:13.373Z,23.50
2018-07-16T21:19:41.796Z,23.50
2018-07-16T21:22:10.316Z,23.40
2018-07-16T21:24:38.809Z,23.40
2018-07-16T21:27:07.354Z,23.40
2018-07-16T21:29:35.824Z,23.30
2018-07-16T21:32:04.297Z,23.30
2018-07-16T21:34:32.792Z,23.20
2018-07-16T21:37:01.253Z,23.10
2018-07-16T21:39:29.795Z,23.10
2018-07-16T21:41:58.260Z,23.00
2018-07-16T21:44:27.505Z,23.00
2018-07-16T21:46:56.886Z,23.00
2018-07-16T21:49:25.318Z,23.00
2018-07-16T21:51:53.804Z,22.90
2018-07-16T21:54:22.239Z,22.80
2018-07-16T21:56:51.243Z,22.60
2018-07-16T21:59:19.938Z,22.50
2018-07-16T22:01:49.061Z,22.40
2018-07-16T22:04:17.554Z,22.40
2018-07-16T22:06:46.065Z,22.30
2018-07-16T22:09:14.548Z,22.30
2018-07-16T22:11:43.000Z,22.20
2018-07-16T22:14:11.469Z,22.10
2018-07-16T22:16:39.906Z,22.00
2018-07-16T22:19:08.367Z,21.90
2018-07-16T22:21:36.856Z,21.80
2018-07-16T22:24:05.345Z,21.80
2018-07-16T22:26:33.894Z,21.80
2018-07-16T22:29:02.313Z,21.80
2018-07-16T22:31:30.850Z,21.70
2018-07-16T22:33:59.315Z,21.60
2018-07-16T22:36:27.773Z,21.60
2018-07-16T22:38:56.241Z,21.60
2018-07-16T22:41:24.718Z,21.50
2018-07-16T22:43:53.152Z,21.50
2018-07-16T22:46:21.601Z,21.40
2018-07-16T22:48:50.033Z,21.40
2018-07-16T22:51:18.460Z,21.30
2018-07-16T22:53:46.941Z,21.30
2018-07-16T22:56:15.352Z,21.30
2018-07-16T22:58:43.801Z,21.30
2018-07-16T23:01:12.333Z,21.30
2018-07-16T23:03:40.797Z,21.30
2018-07-16T23:06:09.215Z,21.30
2018-07-16T23:08:37.672Z,21.30
2018-07-16T23:11:06.117Z,21.30
2018-07-16T23:13:34.548Z,21.30
2018-07-16T23:16:03.021Z,21.30
2018-07-16T23:18:31.517Z,21.20
2018-07-16T23:21:00.778Z,21.20
2018-07-16T23:23:29.197Z,21.20
2018-07-16T23:25:57.727Z,21.20
2018-07-16T23:30:55.036Z,21.20
2018-07-16T23:33:23.497Z,21.20
2018-07-16T23:35:51.937Z,21.10
2018-07-16T23:38:20.348Z,21.00
2018-07-16T23:40:48.796Z,20.90
2018-07-16T23:43:17.197Z,20.70
2018-07-16T23:45:45.665Z,20.60
2018-07-16T23:48:14.187Z,20.60
2018-07-16T23:50:42.649Z,20.60
2018-07-16T23:53:11.101Z,20.60
2018-07-16T23:55:40.045Z,20.40
2018-07-16T23:58:09.249Z,20.40
